createdAt,value
2022-08-29T00:02:00.439Z,39.8
2022-08-29T00:07:44.995Z,39.8
2022-08-29T00:13:25.321Z,39.8
2022-08-29T00:19:10.346Z,39.8
2022-08-29T00:24:36.946Z,39.7
2022-08-29T00:30:01.927Z,39.7
2022-08-29T00:35:39.349Z,39.6
2022-08-29T00:51:52.754Z,39.6
2022-08-29T00:56:57.613Z,39.6
2022-08-29T01:02:37.300Z,39.5
2022-08-29T01:08:20.530Z,39.4
2022-08-29T01:14:11.884Z,39.4
2022-08-29T01:24:54.865Z,39.3
2022-08-29T01:30:32.206Z,39.3
2022-08-29T01:36:43.859Z,39.3
2022-08-29T01:42:23.973Z,39.3
2022-08-29T01:48:04.875Z,39.3
2022-08-29T01:53:41.259Z,39.2
2022-08-29T01:59:22.420Z,39.2
2022-08-29T02:04:46.322Z,39.1
2022-08-29T02:10:23.554Z,39.1
2022-08-29T02:21:21.330Z,39.1
2022-08-29T02:27:26.191Z,38.9
2022-08-29T02:32:37.181Z,38.8
2022-08-29T02:38:07.665Z,38.8
2022-08-29T02:43:43.823Z,38.6
2022-08-29T02:49:34.579Z,38.6
2022-08-29T03:00:25.059Z,38.4
2022-08-29T03:05:46.953Z,38.4
2022-08-29T03:16:52.713Z,38.3
2022-08-29T03:22:30.510Z,38.3
2022-08-29T03:28:16.811Z,38.2
2022-08-29T03:38:49.135Z,38.1
2022-08-29T03:44:26.286Z,38.1
2022-08-29T03:50:05.391Z,38.1
2022-08-29T03:55:43.904Z,38.1
2022-08-29T04:01:21.251Z,38
2022-08-29T04:07:03.183Z,38
2022-08-29T04:12:39.624Z,37.9
2022-08-29T04:18:26.875Z,37.9
2022-08-29T04:24:04.647Z,37.9
2022-08-29T04:30:10.836Z,37.9
2022-08-29T04:35:58.323Z,37.9
2022-08-29T04:41:35.840Z,37.8
2022-08-29T04:47:14.333Z,37.8
2022-08-29T04:52:58.087Z,37.8
2022-08-29T04:58:28.285Z,37.8
2022-08-29T05:03:55.323Z,37.7
2022-08-29T05:09:43.758Z,37.7
2022-08-29T05:15:21.130Z,37.6
2022-08-29T05:21:04.990Z,37.6
2022-08-29T05:26:46.055Z,37.6
2022-08-29T05:32:35.681Z,37.5
2022-08-29T05:38:16.206Z,37.5
2022-08-29T05:43:55.330Z,37.4
2022-08-29T05:49:45.319Z,37.4
2022-08-29T05:55:22.234Z,37.4
2022-08-29T06:01:00.004Z,37.3
2022-08-29T06:06:43.465Z,37.3
2022-08-29T06:12:20.626Z,37.3
2022-08-29T06:18:01.676Z,37.2
2022-08-29T06:23:49.057Z,37.2
2022-08-29T06:30:02.843Z,37.1
2022-08-29T06:35:41.668Z,42.9
2022-08-29T06:41:18.838Z,41.3
2022-08-29T06:46:59.142Z,40.3
2022-08-29T06:52:46.953Z,48.2
2022-08-29T06:58:57.942Z,48.3
2022-08-29T07:04:54.348Z,49.4
2022-08-29T07:10:55.618Z,50.4
2022-08-29T07:16:36.684Z,50.1
2022-08-29T07:22:31.391Z,49.9
2022-08-29T07:28:11.830Z,49
2022-08-29T07:34:10.880Z,48.8
2022-08-29T07:40:02.893Z,48.5
2022-08-29T07:45:52.342Z,49.5
2022-08-29T07:51:44.124Z,49.9
2022-08-29T07:57:26.434Z,52.2
2022-08-29T08:02:52.510Z,53.9
2022-08-29T08:08:48.031Z,53.8
2022-08-29T08:14:36.422Z,55.4
2022-08-29T08:20:14.234Z,55.3
2022-08-29T08:26:03.860Z,57
2022-08-29T08:31:43.503Z,56.6
2022-08-29T08:37:13.919Z,55.6
2022-08-29T08:43:05.739Z,55.6
2022-08-29T08:54:14.295Z,55.9
2022-08-29T08:59:35.755Z,55.4
2022-08-29T09:05:16.438Z,53.6
2022-08-29T09:16:24.989Z,51.4
2022-08-29T09:22:49.431Z,47.4
2022-08-29T09:28:31.980Z,44.5
2022-08-29T09:34:16.906Z,42
2022-08-29T09:40:21.728Z,41.8
2022-08-29T09:46:02.471Z,41.9
2022-08-29T09:51:40.460Z,42.1
2022-08-29T09:57:27.730Z,42.8
2022-08-29T10:03:19.295Z,43
2022-08-29T10:09:04.346Z,43.1
2022-08-29T10:14:34.988Z,43.1
2022-08-29T10:20:42.220Z,42.9
2022-08-29T10:26:22.287Z,43.7
2022-08-29T10:31:44.976Z,49.4
2022-08-29T10:37:17.653Z,51.6
2022-08-29T10:43:04.718Z,52.4
2022-08-29T10:48:46.750Z,52.3
2022-08-29T10:54:41.989Z,53.6
2022-08-29T11:00:25.289Z,54.8
2022-08-29T11:06:03.640Z,53.6
2022-08-29T11:11:42.822Z,50.3
2022-08-29T11:17:23.772Z,51.4
2022-08-29T11:23:06.429Z,49.3
2022-08-29T11:28:51.970Z,48.6
2022-08-29T11:34:31.728Z,48.1
2022-08-29T11:40:09.045Z,48.3
2022-08-29T11:47:17.291Z,48.4
2022-08-29T11:53:02.149Z,48.9
2022-08-29T11:58:46.196Z,50.3
2022-08-29T12:04:43.237Z,51.1
2022-08-29T12:10:51.592Z,51.3
2022-08-29T12:16:19.088Z,49.6
2022-08-29T12:22:22.487Z,48.8
2022-08-29T12:28:42.624Z,48.3
2022-08-29T12:35:06.219Z,47.8
2022-08-29T12:40:58.674Z,47.4
2022-08-29T12:46:05.560Z,47
2022-08-29T12:51:43.842Z,46.7
2022-08-29T12:57:10.139Z,46.3
2022-08-29T13:02:53.510Z,45.9
2022-08-29T13:08:36.395Z,45.6
2022-08-29T13:14:20.485Z,45.3
2022-08-29T13:20:29.868Z,44.9
2022-08-29T13:26:11.956Z,44.4
2022-08-29T13:31:47.291Z,44
2022-08-29T13:37:37.472Z,43.4
2022-08-29T13:43:22.095Z,43
2022-08-29T13:49:01.059Z,42.6
2022-08-29T13:54:43.400Z,42.1
2022-08-29T14:00:25.460Z,40.9
2022-08-29T14:07:23.548Z,39.3
2022-08-29T14:13:07.002Z,38.3
2022-08-29T14:18:57.031Z,37.7
2022-08-29T14:24:19.295Z,37.3
2022-08-29T14:30:10.296Z,36.9
2022-08-29T14:36:17.607Z,36.6
2022-08-29T14:42:05.226Z,36.3
2022-08-29T14:47:44.816Z,36.2
2022-08-29T14:53:22.575Z,36
2022-08-29T14:59:46.257Z,35.9
2022-08-29T15:11:00.802Z,35.6
2022-08-29T15:16:38.630Z,35.6
2022-08-29T15:23:51.229Z,35.5
2022-08-29T15:29:37.911Z,35.4
2022-08-29T15:35:17.801Z,35.4
2022-08-29T15:41:02.839Z,35.4
2022-08-29T15:46:54.637Z,35.3
2022-08-29T15:52:33.814Z,35.3
2022-08-29T15:58:24.238Z,35.1
2022-08-29T16:04:30.192Z,34.8
2022-08-29T16:10:27.891Z,34.6
